KIRK Airport (Kirksville Rgnl) Information

FAA: IRK - ICAO: KIRK

KIRK Airport Location

State Missouri
County Adair
City Kirksville
KIRK Airport is 6 miles southeast of Kirksville, MO.
Latitude 40-05-36.5000N
Longitude 092-32-41.7000W
Elevation 966ft

KIRK Airport METARs

METAR KIRK 121355Z AUTO 12008KT 10SM OVC024 21/13 A3023 RMK AO2 SLP233 T02110133
Altimeter 30.23"
Temperature 21.1°C (70.0°F)
Wind 120° at 8KT
Clouds overcast at 2,400ft
Visibility 10.0mi
Time observed: 2022-08-12T13:55:00Z

KIRK Airport Details

Status Operational
Activation May 1941
Ownership Public
Usage Public
Chart CHICAGO
ATC on-site No
Beacon schedule sunset-sunrise
Beacon color clear green

KIRK Airport Contacts

Owner CITY OF KIRKSVILLE
Owner address CITY HALL, 201 SOUTH FRANKLIN, KIRKSVILLE, MO 63501
Owner phone 660-627-1225
Manager KENT HILL
Manager address 4801 LINWOOD BLVD., KANSAS CITY, MO 64128
Manager phone 816-861-4700

KIRK Airport (Kirksville Rgnl) Radio Frequencies

KIRK (Airport) Radio Frequencies

UNICOM 122.8
Common traffic advisory frequency (CTAF) 122.8